createdAt,value
2023-01-20T00:01:35.226Z,2.40
2023-01-20T00:04:03.442Z,3.23
2023-01-20T00:06:31.468Z,2.83
2023-01-20T00:09:00.552Z,2.27
2023-01-20T00:11:28.701Z,2.60
2023-01-20T00:13:58.381Z,2.70
2023-01-20T00:16:26.407Z,2.20
2023-01-20T00:18:54.515Z,3.30
2023-01-20T00:21:22.535Z,1.73
2023-01-20T00:23:50.521Z,2.53
2023-01-20T00:26:19.325Z,2.23
2023-01-20T00:28:47.699Z,2.20
2023-01-20T00:31:18.152Z,2.03
2023-01-20T00:33:46.206Z,1.87
2023-01-20T00:36:14.314Z,2.90
2023-01-20T00:38:42.277Z,2.63
2023-01-20T00:41:10.308Z,1.90
2023-01-20T00:43:38.273Z,2.07
2023-01-20T00:46:06.384Z,2.50
2023-01-20T00:48:35.839Z,1.73
2023-01-20T00:51:03.964Z,1.20
2023-01-20T00:53:31.953Z,1.60
2023-01-20T00:55:59.906Z,2.27
2023-01-20T00:58:27.874Z,2.10
2023-01-20T01:00:56.352Z,1.77
2023-01-20T01:03:24.404Z,1.80
2023-01-20T01:05:53.770Z,1.90
2023-01-20T01:08:21.776Z,2.17
2023-01-20T01:10:49.745Z,1.43
2023-01-20T01:13:17.684Z,2.13
2023-01-20T01:15:49.650Z,2.07
2023-01-20T01:18:17.836Z,1.73
2023-01-20T01:20:45.826Z,1.90
2023-01-20T01:23:15.124Z,1.67
2023-01-20T01:25:43.049Z,1.73
2023-01-20T01:28:10.982Z,2.30
2023-01-20T01:30:38.960Z,2.17
2023-01-20T01:33:06.931Z,3.43
2023-01-20T01:35:34.889Z,2.43
2023-01-20T01:38:02.838Z,2.73
2023-01-20T01:40:32.153Z,1.97
2023-01-20T01:43:00.110Z,2.30
2023-01-20T01:45:29.200Z,2.13
2023-01-20T01:48:06.198Z,1.83
2023-01-20T01:50:38.837Z,2.20
2023-01-20T01:53:06.763Z,1.97
2023-01-20T01:55:37.303Z,1.73
2023-01-20T01:58:05.233Z,2.17
2023-01-20T02:00:33.180Z,2.13
2023-01-20T02:03:01.139Z,1.90
2023-01-20T02:05:29.112Z,2.50
2023-01-20T02:07:57.020Z,3.07
2023-01-20T02:10:24.944Z,2.50
2023-01-20T02:12:54.269Z,2.00
2023-01-20T02:15:25.063Z,2.50
2023-01-20T02:18:00.019Z,2.03
2023-01-20T02:20:51.686Z,2.23
2023-01-20T02:23:26.206Z,2.63
2023-01-20T02:26:19.588Z,2.30
2023-01-20T02:29:14.387Z,2.40
2023-01-20T02:32:32.622Z,2.53
2023-01-20T02:35:03.982Z,2.80
2023-01-20T02:37:33.960Z,2.13
2023-01-20T02:40:09.861Z,2.20
2023-01-20T02:42:39.649Z,2.90
2023-01-20T02:45:10.210Z,2.27
2023-01-20T02:47:39.471Z,2.70
2023-01-20T02:50:10.065Z,2.50
2023-01-20T02:52:40.456Z,2.43
2023-01-20T02:55:09.723Z,2.20
2023-01-20T02:57:40.641Z,2.03
2023-01-20T03:00:10.727Z,2.30
2023-01-20T03:02:38.708Z,2.10
2023-01-20T03:05:09.785Z,2.53
2023-01-20T03:07:38.586Z,2.50
2023-01-20T03:10:08.309Z,2.77
2023-01-20T03:12:48.259Z,2.23
2023-01-20T03:15:16.651Z,2.37
2023-01-20T03:17:44.804Z,2.67
2023-01-20T03:20:14.547Z,2.63
2023-01-20T03:22:42.509Z,2.33
2023-01-20T03:25:11.039Z,2.57
2023-01-20T03:27:38.970Z,4.00
2023-01-20T03:30:10.481Z,2.60
2023-01-20T03:32:38.423Z,1.40
2023-01-20T03:35:06.880Z,0.90
2023-01-20T03:37:36.166Z,1.27
2023-01-20T03:40:04.202Z,0.90
2023-01-20T03:42:32.946Z,1.43
2023-01-20T03:45:02.603Z,1.93
2023-01-20T03:47:40.101Z,2.10
2023-01-20T03:50:10.100Z,1.50
2023-01-20T03:52:46.979Z,1.57
2023-01-20T03:55:17.600Z,2.43
2023-01-20T03:57:47.944Z,1.30
2023-01-20T04:00:16.650Z,1.63
2023-01-20T04:02:45.022Z,1.10
2023-01-20T04:05:13.301Z,1.07
2023-01-20T04:07:42.680Z,1.37
2023-01-20T04:10:12.427Z,1.13
2023-01-20T04:12:40.351Z,2.03
2023-01-20T04:15:09.170Z,2.07
2023-01-20T04:17:37.100Z,1.50
2023-01-20T04:20:06.429Z,1.70
2023-01-20T04:22:37.274Z,1.47
2023-01-20T04:25:09.548Z,1.03
2023-01-20T04:27:37.480Z,1.67
2023-01-20T04:30:06.055Z,1.50
2023-01-20T04:32:34.023Z,1.90
2023-01-20T04:35:01.995Z,1.60
2023-01-20T04:37:29.939Z,1.33
2023-01-20T04:39:57.899Z,1.80
2023-01-20T04:42:27.270Z,2.57
2023-01-20T04:44:55.198Z,2.00
2023-01-20T04:47:23.184Z,3.10
2023-01-20T04:49:51.170Z,3.07
2023-01-20T04:52:19.159Z,2.50
2023-01-20T04:54:47.336Z,1.77
2023-01-20T04:57:15.322Z,1.83
2023-01-20T04:59:44.741Z,3.17
2023-01-20T05:02:12.734Z,4.20
2023-01-20T05:04:40.712Z,5.00
2023-01-20T05:07:08.635Z,3.73
2023-01-20T05:09:36.580Z,5.57
2023-01-20T05:12:04.789Z,2.83
2023-01-20T05:14:32.915Z,2.37
2023-01-20T05:17:02.259Z,2.33
2023-01-20T05:19:30.243Z,3.47
2023-01-20T05:21:58.203Z,2.87
2023-01-20T05:24:26.196Z,1.70
2023-01-20T05:26:54.153Z,2.83
2023-01-20T05:29:22.213Z,1.97
2023-01-20T05:31:50.239Z,2.63
2023-01-20T05:34:19.595Z,2.60
2023-01-20T05:36:47.535Z,3.53
2023-01-20T05:39:15.504Z,3.77
2023-01-20T05:41:44.513Z,3.20
2023-01-20T05:44:12.494Z,4.30
2023-01-20T05:46:40.520Z,3.60
2023-01-20T05:49:08.538Z,3.90
2023-01-20T05:51:39.947Z,5.40
2023-01-20T05:54:07.912Z,3.50
2023-01-20T05:56:35.867Z,3.43
2023-01-20T05:59:04.814Z,5.13
2023-01-20T06:01:32.846Z,4.17
2023-01-20T06:04:00.952Z,3.17
2023-01-20T06:06:28.925Z,3.57
2023-01-20T06:08:58.269Z,3.30
2023-01-20T06:11:26.251Z,4.33
2023-01-20T06:13:54.237Z,3.90
2023-01-20T06:16:22.218Z,4.33
2023-01-20T06:18:50.157Z,4.40
2023-01-20T06:21:18.110Z,3.10
2023-01-20T06:23:46.048Z,2.60
2023-01-20T06:26:15.405Z,3.13
2023-01-20T06:28:43.420Z,3.17
2023-01-20T06:31:13.052Z,2.90
2023-01-20T06:33:41.076Z,3.20
2023-01-20T06:36:09.361Z,3.33
2023-01-20T06:38:37.391Z,3.17
2023-01-20T06:41:06.264Z,3.80
2023-01-20T06:43:40.000Z,4.20
2023-01-20T06:46:08.623Z,3.60
2023-01-20T06:48:37.211Z,3.40
2023-01-20T06:51:06.007Z,3.17
2023-01-20T06:53:34.126Z,3.00
2023-01-20T06:56:02.255Z,3.30
2023-01-20T06:58:31.005Z,3.77
2023-01-20T07:01:05.094Z,2.43
2023-01-20T07:03:33.128Z,3.07
2023-01-20T07:06:01.863Z,3.90
2023-01-20T07:08:29.828Z,2.37
2023-01-20T07:10:57.810Z,3.17
2023-01-20T07:13:25.761Z,1.87
2023-01-20T07:15:54.211Z,1.60
2023-01-20T07:18:23.516Z,2.10
2023-01-20T07:20:54.778Z,1.77
2023-01-20T07:23:22.813Z,1.60
2023-01-20T07:25:58.521Z,1.93
2023-01-20T07:28:26.514Z,1.87
2023-01-20T07:30:54.501Z,2.00
2023-01-20T07:33:23.876Z,2.23
2023-01-20T07:35:55.254Z,1.63
2023-01-20T07:38:23.196Z,1.70
2023-01-20T07:40:51.185Z,1.97
2023-01-20T07:43:19.188Z,2.30
2023-01-20T07:45:47.230Z,2.40
2023-01-20T07:48:15.274Z,2.20
2023-01-20T07:50:44.582Z,2.47
2023-01-20T07:53:12.583Z,1.87
2023-01-20T07:55:40.541Z,2.47
2023-01-20T07:58:08.463Z,2.60
2023-01-20T08:00:36.424Z,2.23
2023-01-20T08:03:04.440Z,2.00
2023-01-20T08:05:33.520Z,1.70
2023-01-20T08:08:02.911Z,2.63
2023-01-20T08:10:31.162Z,2.43
2023-01-20T08:12:59.425Z,2.20
2023-01-20T08:15:27.346Z,2.20
2023-01-20T08:17:55.306Z,1.87
2023-01-20T08:20:23.273Z,1.90
2023-01-20T08:22:51.254Z,1.83
2023-01-20T08:25:20.552Z,3.27
2023-01-20T08:27:50.179Z,2.43
2023-01-20T08:30:18.744Z,2.50
2023-01-20T08:32:46.741Z,1.87
2023-01-20T08:35:14.889Z,1.73
2023-01-20T08:37:42.958Z,2.10
2023-01-20T08:40:11.948Z,2.20
2023-01-20T08:42:41.294Z,1.93
2023-01-20T08:45:10.107Z,2.37
2023-01-20T08:47:38.123Z,1.80
2023-01-20T08:50:06.760Z,1.90
2023-01-20T08:52:35.460Z,1.87
2023-01-20T08:55:03.451Z,2.27
2023-01-20T08:57:31.387Z,2.27
2023-01-20T09:00:00.714Z,2.03
2023-01-20T09:02:28.685Z,2.97
2023-01-20T09:04:56.696Z,2.20
2023-01-20T09:07:24.618Z,2.57
2023-01-20T09:09:52.577Z,1.70
2023-01-20T09:12:20.549Z,2.37
2023-01-20T09:14:48.490Z,2.23
2023-01-20T09:17:17.811Z,2.93
2023-01-20T09:19:45.761Z,2.17
2023-01-20T09:22:15.796Z,2.00
2023-01-20T09:24:44.485Z,2.33
2023-01-20T09:27:12.414Z,1.83
2023-01-20T09:29:40.391Z,1.70
2023-01-20T09:32:08.317Z,2.33
2023-01-20T09:34:37.676Z,1.70
2023-01-20T09:37:19.491Z,1.53
2023-01-20T09:40:04.664Z,1.60
2023-01-20T09:42:53.255Z,2.60
2023-01-20T09:45:26.175Z,1.67
2023-01-20T09:47:55.889Z,2.20
2023-01-20T09:51:02.161Z,2.27
2023-01-20T09:53:38.881Z,1.67
2023-01-20T09:56:10.384Z,1.67
2023-01-20T09:58:39.528Z,2.50
2023-01-20T10:01:11.259Z,1.93
2023-01-20T10:03:42.056Z,2.60
2023-01-20T10:06:14.086Z,1.40
2023-01-20T10:08:59.784Z,1.70
2023-01-20T10:11:34.362Z,1.43
2023-01-20T10:14:06.906Z,1.90
2023-01-20T10:16:37.906Z,1.60
2023-01-20T10:19:07.840Z,2.53
2023-01-20T10:21:38.125Z,1.57
2023-01-20T10:24:09.486Z,1.90
2023-01-20T10:26:39.826Z,1.43
2023-01-20T10:29:11.207Z,1.80
2023-01-20T10:31:40.025Z,2.33
2023-01-20T10:34:12.079Z,1.73
2023-01-20T10:36:41.512Z,2.23
2023-01-20T10:39:14.608Z,2.10
2023-01-20T10:41:44.643Z,2.20
2023-01-20T10:44:13.299Z,1.70
2023-01-20T10:46:54.831Z,1.63
2023-01-20T10:49:33.709Z,2.17
2023-01-20T10:52:13.876Z,1.67
2023-01-20T10:54:45.235Z,1.27
2023-01-20T10:57:15.262Z,1.83
2023-01-20T10:59:44.206Z,1.40
2023-01-20T11:02:16.410Z,1.30
2023-01-20T11:04:44.599Z,1.70
2023-01-20T11:07:18.399Z,1.00
2023-01-20T11:09:46.328Z,0.90
2023-01-20T11:12:16.387Z,1.10
2023-01-20T11:14:44.485Z,0.80
2023-01-20T11:17:15.249Z,1.10
2023-01-20T11:19:48.140Z,1.23
2023-01-20T11:22:22.559Z,1.60
2023-01-20T11:24:51.126Z,1.70
2023-01-20T11:27:21.441Z,1.87
2023-01-20T11:29:50.987Z,2.87
2023-01-20T11:32:29.440Z,2.20
2023-01-20T11:34:57.509Z,2.20
2023-01-20T11:37:27.038Z,1.77
2023-01-20T11:40:00.380Z,2.33
2023-01-20T11:42:29.362Z,3.00
2023-01-20T11:45:05.704Z,2.10
2023-01-20T11:47:46.312Z,1.67
2023-01-20T11:50:24.830Z,1.80
2023-01-20T11:52:54.143Z,1.00
2023-01-20T11:55:23.377Z,1.27
2023-01-20T11:57:53.399Z,1.00
2023-01-20T12:00:31.759Z,0.90
2023-01-20T12:03:00.772Z,0.80
2023-01-20T12:05:31.042Z,0.70
2023-01-20T12:08:00.596Z,0.80
2023-01-20T12:10:29.755Z,0.70
2023-01-20T12:12:59.393Z,1.20
2023-01-20T12:15:28.507Z,1.37
2023-01-20T12:17:57.649Z,0.93
2023-01-20T12:20:29.112Z,1.02
2023-01-20T12:23:14.390Z,1.10
2023-01-20T12:25:45.876Z,1.20
2023-01-20T12:28:15.303Z,1.20
2023-01-20T12:30:53.463Z,1.40
2023-01-20T12:33:24.091Z,1.20
2023-01-20T12:36:33.870Z,1.87
2023-01-20T12:39:11.275Z,1.33
2023-01-20T12:41:49.339Z,1.00
2023-01-20T12:44:19.714Z,1.20
2023-01-20T12:46:48.280Z,0.93
2023-01-20T12:49:43.830Z,0.83
2023-01-20T12:52:20.374Z,0.83
2023-01-20T12:55:05.637Z,0.93
2023-01-20T12:57:44.102Z,1.00
2023-01-20T13:00:24.970Z,1.67
2023-01-20T13:03:28.611Z,1.03
2023-01-20T13:06:09.264Z,1.20
2023-01-20T13:08:39.193Z,0.77
2023-01-20T13:11:15.658Z,1.13
2023-01-20T13:13:56.963Z,1.00
2023-01-20T13:16:31.773Z,1.30
2023-01-20T13:19:04.081Z,1.27
2023-01-20T13:21:32.719Z,0.70
2023-01-20T13:24:00.941Z,1.20
2023-01-20T13:26:30.576Z,0.83
2023-01-20T13:29:00.538Z,0.80
2023-01-20T13:31:45.252Z,0.87
2023-01-20T13:34:35.704Z,1.00
2023-01-20T13:37:24.177Z,0.90
2023-01-20T13:39:53.266Z,1.20
2023-01-20T13:42:50.329Z,0.97
2023-01-20T13:45:27.800Z,0.90
2023-01-20T13:48:03.898Z,0.83
2023-01-20T13:50:33.125Z,0.80
2023-01-20T13:53:29.349Z,0.70
2023-01-20T13:56:02.070Z,0.70
2023-01-20T13:58:32.586Z,0.97
2023-01-20T14:01:02.649Z,0.70
2023-01-20T14:03:31.353Z,0.90
2023-01-20T14:06:00.854Z,0.80
2023-01-20T14:08:29.747Z,1.20
2023-01-20T14:11:14.049Z,1.40
2023-01-20T14:13:43.377Z,1.30
2023-01-20T14:16:20.041Z,1.20
2023-01-20T14:18:48.037Z,1.23
2023-01-20T14:21:19.216Z,0.90
2023-01-20T14:23:47.277Z,0.87
2023-01-20T14:26:16.077Z,1.73
2023-01-20T14:28:50.252Z,1.20
2023-01-20T14:31:36.534Z,1.17
2023-01-20T14:34:28.228Z,1.20
2023-01-20T14:36:56.845Z,1.03
2023-01-20T14:39:25.677Z,1.10
2023-01-20T14:41:54.215Z,0.90
2023-01-20T14:44:24.190Z,0.83
2023-01-20T14:46:53.136Z,0.80
2023-01-20T14:49:22.694Z,0.70
2023-01-20T14:51:51.187Z,0.80
2023-01-20T14:54:35.109Z,1.03
2023-01-20T14:57:17.538Z,1.17
2023-01-20T14:59:46.973Z,1.37
2023-01-20T15:02:19.665Z,0.80
2023-01-20T15:04:49.020Z,0.87
2023-01-20T15:07:20.008Z,1.13
2023-01-20T15:09:52.815Z,1.03
2023-01-20T15:12:39.618Z,1.07
2023-01-20T15:15:18.936Z,0.80
2023-01-20T15:18:06.079Z,0.90
2023-01-20T15:20:34.569Z,1.13
2023-01-20T15:23:02.572Z,0.80
2023-01-20T15:25:30.538Z,1.20
2023-01-20T15:27:58.450Z,1.23
2023-01-20T15:30:29.922Z,1.10
2023-01-20T15:32:57.896Z,0.80
2023-01-20T15:35:26.949Z,0.93
2023-01-20T15:37:55.293Z,1.03
2023-01-20T15:40:24.355Z,1.00
2023-01-20T15:42:53.509Z,1.00
2023-01-20T15:45:21.686Z,0.97
2023-01-20T15:47:51.179Z,1.03
2023-01-20T15:50:20.753Z,1.00
2023-01-20T15:52:48.790Z,0.90
2023-01-20T15:55:18.105Z,0.90
2023-01-20T15:57:46.233Z,1.47
2023-01-20T16:00:18.064Z,1.30
2023-01-20T16:02:46.399Z,0.80
2023-01-20T16:05:17.554Z,1.17
2023-01-20T16:07:47.828Z,1.13
2023-01-20T16:10:17.798Z,5.27
2023-01-20T16:12:45.981Z,1.57
2023-01-20T16:15:17.886Z,1.30
2023-01-20T16:17:45.833Z,1.10
2023-01-20T16:20:22.969Z,1.13
2023-01-20T16:22:51.625Z,1.30
2023-01-20T16:25:19.628Z,2.17
2023-01-20T16:27:47.637Z,1.60
2023-01-20T16:30:20.092Z,1.10
2023-01-20T16:32:48.244Z,1.17
2023-01-20T16:35:16.484Z,1.77
2023-01-20T16:37:46.029Z,1.80
2023-01-20T16:40:15.019Z,1.83
2023-01-20T16:42:43.148Z,2.27
2023-01-20T16:45:22.138Z,10.10
2023-01-20T16:47:50.272Z,21.50
2023-01-20T16:50:18.540Z,16.70
2023-01-20T16:52:47.927Z,68.93
2023-01-20T16:55:16.059Z,45.47
2023-01-20T16:57:44.348Z,42.70
2023-01-20T17:00:13.221Z,39.70
2023-01-20T17:02:41.183Z,13.33
2023-01-20T17:05:09.898Z,2.10
2023-01-20T17:07:37.870Z,1.20
2023-01-20T17:10:08.457Z,1.63
2023-01-20T17:12:36.439Z,5.53
2023-01-20T17:15:04.630Z,4.20
2023-01-20T17:17:33.863Z,3.27
2023-01-20T17:20:01.817Z,5.47
2023-01-20T17:22:29.839Z,12.00
2023-01-20T17:24:57.844Z,14.67
2023-01-20T17:27:27.194Z,16.80
2023-01-20T17:29:55.208Z,9.40
2023-01-20T17:32:23.164Z,9.97
2023-01-20T17:34:51.194Z,5.10
2023-01-20T17:37:19.107Z,8.37
2023-01-20T17:39:47.865Z,5.80
2023-01-20T17:42:17.635Z,5.47
2023-01-20T17:44:47.087Z,3.50
2023-01-20T17:47:15.059Z,6.97
2023-01-20T17:49:43.004Z,12.27
2023-01-20T17:52:10.980Z,10.70
2023-01-20T17:54:38.911Z,9.47
2023-01-20T17:57:06.877Z,3.23
2023-01-20T17:59:34.812Z,10.07
2023-01-20T18:02:05.549Z,1.90
2023-01-20T18:04:33.544Z,1.33
2023-01-20T18:07:01.559Z,1.90
2023-01-20T18:09:29.520Z,1.87
2023-01-20T18:11:57.483Z,8.30
2023-01-20T18:14:25.993Z,9.10
2023-01-20T18:16:54.503Z,3.57
2023-01-20T18:19:23.867Z,1.80
2023-01-20T18:21:51.767Z,2.17
2023-01-20T18:24:19.733Z,5.63
2023-01-20T18:26:47.730Z,4.00
2023-01-20T18:29:16.596Z,2.10
2023-01-20T18:31:44.811Z,1.63
2023-01-20T18:34:13.324Z,3.50
2023-01-20T18:36:44.947Z,1.20
2023-01-20T18:39:14.988Z,1.20
2023-01-20T18:41:43.276Z,2.00
2023-01-20T18:44:11.400Z,3.00
2023-01-20T18:46:39.405Z,15.10
2023-01-20T18:49:09.580Z,26.10
2023-01-20T18:51:37.761Z,2.30
2023-01-20T18:54:09.639Z,4.90
2023-01-20T18:56:37.661Z,7.07
2023-01-20T18:59:06.265Z,2.10
2023-01-20T19:01:34.997Z,2.20
2023-01-20T19:04:03.260Z,2.37
2023-01-20T19:06:31.921Z,3.83
2023-01-20T19:09:00.102Z,3.30
2023-01-20T19:11:31.371Z,2.87
2023-01-20T19:13:59.565Z,3.60
2023-01-20T19:16:28.340Z,1.90
2023-01-20T19:18:57.100Z,4.90
2023-01-20T19:21:25.331Z,68.20
2023-01-20T19:23:53.909Z,49.63
2023-01-20T19:26:21.945Z,7.37
2023-01-20T19:28:56.928Z,2.30
2023-01-20T19:31:24.998Z,3.30
2023-01-20T19:33:53.091Z,2.40
2023-01-20T19:36:21.148Z,2.47
2023-01-20T19:38:49.143Z,3.43
2023-01-20T19:41:17.982Z,3.10
2023-01-20T19:43:45.984Z,2.17
2023-01-20T19:46:16.480Z,2.23
2023-01-20T19:48:44.525Z,2.53
2023-01-20T19:51:13.736Z,2.53
2023-01-20T19:53:42.189Z,1.93
2023-01-20T19:56:11.062Z,20.93
2023-01-20T19:58:39.089Z,3.83
2023-01-20T20:01:07.774Z,9.87
2023-01-20T20:03:37.225Z,4.40
2023-01-20T20:06:05.536Z,6.90
2023-01-20T20:08:33.658Z,3.00
2023-01-20T20:11:01.680Z,2.47
2023-01-20T20:13:29.603Z,3.00
2023-01-20T20:16:03.805Z,2.97
2023-01-20T20:18:31.804Z,3.47
2023-01-20T20:21:01.108Z,2.67
2023-01-20T20:23:29.953Z,3.37
2023-01-20T20:25:57.921Z,3.63
2023-01-20T20:28:25.987Z,4.60
2023-01-20T20:30:55.570Z,2.37
2023-01-20T20:33:24.297Z,3.00
2023-01-20T20:35:52.364Z,2.37
2023-01-20T20:38:21.637Z,9.50
2023-01-20T20:40:49.564Z,3.53
2023-01-20T20:43:17.510Z,3.00
2023-01-20T20:45:45.447Z,2.87
2023-01-20T20:48:13.372Z,2.70
2023-01-20T20:50:41.283Z,2.70
2023-01-20T20:53:09.203Z,2.20
2023-01-20T20:55:41.582Z,2.30
2023-01-20T20:58:09.674Z,2.00
2023-01-20T21:00:37.772Z,2.77
2023-01-20T21:03:06.858Z,2.73
2023-01-20T21:05:34.980Z,1.80
2023-01-20T21:08:04.783Z,2.73
2023-01-20T21:10:32.727Z,2.90
2023-01-20T21:13:02.018Z,2.70
2023-01-20T21:15:30.588Z,2.93
2023-01-20T21:17:58.537Z,2.57
2023-01-20T21:20:26.599Z,2.33
2023-01-20T21:22:54.519Z,2.30
2023-01-20T21:25:25.069Z,2.27
2023-01-20T21:27:53.034Z,2.67
2023-01-20T21:30:22.570Z,2.43
2023-01-20T21:32:50.528Z,3.00
2023-01-20T21:35:18.527Z,3.63
2023-01-20T21:37:46.468Z,3.33
2023-01-20T21:40:14.902Z,4.00
2023-01-20T21:42:43.037Z,4.60
2023-01-20T21:45:10.961Z,4.17
2023-01-20T21:47:41.739Z,5.33
2023-01-20T21:50:29.507Z,4.90
2023-01-20T21:52:57.476Z,5.53
2023-01-20T21:55:25.476Z,4.67
2023-01-20T21:57:53.399Z,5.33
2023-01-20T22:00:22.128Z,6.10
2023-01-20T22:02:51.477Z,4.90
2023-01-20T22:05:19.413Z,6.13
2023-01-20T22:07:48.487Z,6.50
2023-01-20T22:10:16.809Z,6.67
2023-01-20T22:12:45.000Z,6.20
2023-01-20T22:15:13.541Z,6.83
2023-01-20T22:17:41.525Z,7.20
2023-01-20T22:20:12.334Z,7.50
2023-01-20T22:22:40.339Z,6.73
2023-01-20T22:25:08.785Z,7.10
2023-01-20T22:27:36.856Z,7.50
2023-01-20T22:30:05.235Z,6.90
2023-01-20T22:32:33.183Z,6.87
2023-01-20T22:35:01.153Z,6.80
2023-01-20T22:37:32.026Z,6.70
2023-01-20T22:40:02.065Z,6.67
2023-01-20T22:42:30.017Z,6.50
2023-01-20T22:44:58.107Z,6.90
2023-01-20T22:47:26.059Z,6.10
2023-01-20T22:49:56.661Z,5.93
2023-01-20T22:52:24.747Z,5.67
2023-01-20T22:54:54.032Z,4.80
2023-01-20T22:57:22.002Z,6.00
2023-01-20T22:59:49.966Z,6.23
2023-01-20T23:02:18.025Z,5.90
2023-01-20T23:04:45.966Z,6.03
2023-01-20T23:07:14.342Z,5.63
2023-01-20T23:09:42.312Z,5.70
2023-01-20T23:12:11.652Z,6.00
2023-01-20T23:14:57.472Z,4.43
2023-01-20T23:17:25.397Z,6.10
2023-01-20T23:19:53.316Z,7.47
2023-01-20T23:22:21.271Z,6.17
2023-01-20T23:24:49.262Z,4.67
2023-01-20T23:27:18.631Z,5.30
2023-01-20T23:29:46.989Z,6.70
2023-01-20T23:32:15.003Z,6.80
2023-01-20T23:34:43.017Z,6.63
2023-01-20T23:37:11.020Z,4.83
2023-01-20T23:39:39.007Z,4.63
2023-01-20T23:42:07.020Z,4.20
2023-01-20T23:44:36.330Z,4.73
2023-01-20T23:47:07.514Z,5.63
2023-01-20T23:49:35.471Z,5.53
2023-01-20T23:52:03.405Z,5.93
2023-01-20T23:54:31.341Z,4.53
2023-01-20T23:56:59.306Z,4.60
2023-01-20T23:59:27.256Z,4.73
